sensor_id;sensor_type;location;lat;lon;timestamp;P1;durP1;ratioP1;P2;durP2;ratioP2
69573;SDS011;62840;52.366;5.980;2023-10-19T00:00:25;8.55;;;4.47;;
69573;SDS011;62840;52.366;5.980;2023-10-19T00:02:50;9.63;;;4.70;;
69573;SDS011;62840;52.366;5.980;2023-10-19T00:05:16;9.30;;;4.45;;
69573;SDS011;62840;52.366;5.980;2023-10-19T00:07:42;8.00;;;4.15;;
69573;SDS011;62840;52.366;5.980;2023-10-19T00:10:11;7.17;;;3.87;;
69573;SDS011;62840;52.366;5.980;2023-10-19T00:12:37;10.25;;;4.60;;
69573;SDS011;62840;52.366;5.980;2023-10-19T00:15:03;10.05;;;4.85;;
69573;SDS011;62840;52.366;5.980;2023-10-19T00:17:31;9.10;;;4.28;;
69573;SDS011;62840;52.366;5.980;2023-10-19T00:19:56;9.17;;;4.77;;
69573;SDS011;62840;52.366;5.980;2023-10-19T00:22:22;8.85;;;4.43;;
69573;SDS011;62840;52.366;5.980;2023-10-19T00:24:48;9.03;;;4.57;;
69573;SDS011;62840;52.366;5.980;2023-10-19T00:27:16;7.93;;;4.13;;
69573;SDS011;62840;52.366;5.980;2023-10-19T00:29:42;8.88;;;4.35;;
69573;SDS011;62840;52.366;5.980;2023-10-19T00:32:08;8.33;;;4.20;;
69573;SDS011;62840;52.366;5.980;2023-10-19T00:34:33;8.43;;;4.10;;
69573;SDS011;62840;52.366;5.980;2023-10-19T00:36:59;8.17;;;4.17;;
69573;SDS011;62840;52.366;5.980;2023-10-19T00:39:25;8.10;;;4.43;;
69573;SDS011;62840;52.366;5.980;2023-10-19T00:41:51;8.83;;;4.63;;
69573;SDS011;62840;52.366;5.980;2023-10-19T00:44:19;7.82;;;4.15;;
69573;SDS011;62840;52.366;5.980;2023-10-19T00:46:45;6.63;;;3.50;;
69573;SDS011;62840;52.366;5.980;2023-10-19T00:49:11;7.00;;;4.05;;
69573;SDS011;62840;52.366;5.980;2023-10-19T00:51:40;6.95;;;3.72;;
69573;SDS011;62840;52.366;5.980;2023-10-19T00:54:10;8.77;;;4.22;;
69573;SDS011;62840;52.366;5.980;2023-10-19T00:56:42;7.90;;;3.83;;
69573;SDS011;62840;52.366;5.980;2023-10-19T00:59:11;7.63;;;4.18;;
69573;SDS011;62840;52.366;5.980;2023-10-19T01:01:42;7.65;;;4.45;;
69573;SDS011;62840;52.366;5.980;2023-10-19T01:04:10;8.05;;;4.28;;
69573;SDS011;62840;52.366;5.980;2023-10-19T01:06:37;8.95;;;4.53;;
69573;SDS011;62840;52.366;5.980;2023-10-19T01:09:03;9.00;;;4.50;;
69573;SDS011;62840;52.366;5.980;2023-10-19T01:11:29;8.93;;;4.63;;
69573;SDS011;62840;52.366;5.980;2023-10-19T01:13:54;7.65;;;4.00;;
69573;SDS011;62840;52.366;5.980;2023-10-19T01:16:21;8.83;;;4.13;;
69573;SDS011;62840;52.366;5.980;2023-10-19T01:18:50;8.52;;;4.00;;
69573;SDS011;62840;52.366;5.980;2023-10-19T01:21:16;9.43;;;4.10;;
69573;SDS011;62840;52.366;5.980;2023-10-19T01:23:44;9.07;;;4.10;;
69573;SDS011;62840;52.366;5.980;2023-10-19T01:26:11;8.27;;;4.47;;
69573;SDS011;62840;52.366;5.980;2023-10-19T01:28:37;8.23;;;4.97;;
69573;SDS011;62840;52.366;5.980;2023-10-19T01:31:03;9.25;;;4.38;;
69573;SDS011;62840;52.366;5.980;2023-10-19T01:33:29;9.52;;;4.68;;
69573;SDS011;62840;52.366;5.980;2023-10-19T01:35:55;8.23;;;4.90;;
69573;SDS011;62840;52.366;5.980;2023-10-19T01:38:20;7.93;;;4.37;;
69573;SDS011;62840;52.366;5.980;2023-10-19T01:40:49;9.05;;;4.72;;
69573;SDS011;62840;52.366;5.980;2023-10-19T01:43:15;7.87;;;4.60;;
69573;SDS011;62840;52.366;5.980;2023-10-19T01:45:40;9.40;;;4.80;;
69573;SDS011;62840;52.366;5.980;2023-10-19T01:48:06;10.07;;;5.07;;
69573;SDS011;62840;52.366;5.980;2023-10-19T01:50:32;9.43;;;4.60;;
69573;SDS011;62840;52.366;5.980;2023-10-19T01:52:58;8.65;;;4.47;;
69573;SDS011;62840;52.366;5.980;2023-10-19T01:55:24;8.93;;;4.57;;
69573;SDS011;62840;52.366;5.980;2023-10-19T01:57:52;9.02;;;4.55;;
69573;SDS011;62840;52.366;5.980;2023-10-19T02:00:18;8.85;;;4.30;;
69573;SDS011;62840;52.366;5.980;2023-10-19T02:02:44;9.55;;;5.40;;
69573;SDS011;62840;52.366;5.980;2023-10-19T02:05:10;8.73;;;4.70;;
69573;SDS011;62840;52.366;5.980;2023-10-19T02:07:36;10.23;;;5.20;;
69573;SDS011;62840;52.366;5.980;2023-10-19T02:10:02;9.47;;;5.13;;
69573;SDS011;62840;52.366;5.980;2023-10-19T02:12:28;9.93;;;5.45;;
69573;SDS011;62840;52.366;5.980;2023-10-19T02:14:56;10.40;;;5.83;;
69573;SDS011;62840;52.366;5.980;2023-10-19T02:17:22;10.65;;;5.40;;
69573;SDS011;62840;52.366;5.980;2023-10-19T02:19:47;9.70;;;5.85;;
69573;SDS011;62840;52.366;5.980;2023-10-19T02:22:13;9.73;;;5.43;;
69573;SDS011;62840;52.366;5.980;2023-10-19T02:24:39;11.68;;;6.10;;
69573;SDS011;62840;52.366;5.980;2023-10-19T02:27:05;11.97;;;5.77;;
69573;SDS011;62840;52.366;5.980;2023-10-19T02:29:30;10.95;;;6.38;;
69573;SDS011;62840;52.366;5.980;2023-10-19T02:31:59;10.30;;;5.57;;
69573;SDS011;62840;52.366;5.980;2023-10-19T02:34:24;10.80;;;5.50;;
69573;SDS011;62840;52.366;5.980;2023-10-19T02:36:50;10.13;;;5.43;;
69573;SDS011;62840;52.366;5.980;2023-10-19T02:39:16;11.05;;;6.13;;
69573;SDS011;62840;52.366;5.980;2023-10-19T02:41:42;10.20;;;5.68;;
69573;SDS011;62840;52.366;5.980;2023-10-19T02:44:10;9.80;;;5.95;;
69573;SDS011;62840;52.366;5.980;2023-10-19T02:46:39;10.60;;;5.90;;
69573;SDS011;62840;52.366;5.980;2023-10-19T02:49:07;12.40;;;6.63;;
69573;SDS011;62840;52.366;5.980;2023-10-19T02:51:36;10.03;;;5.97;;
69573;SDS011;62840;52.366;5.980;2023-10-19T02:54:02;10.43;;;5.85;;
69573;SDS011;62840;52.366;5.980;2023-10-19T02:56:28;9.93;;;5.68;;
69573;SDS011;62840;52.366;5.980;2023-10-19T02:58:54;10.93;;;6.13;;
69573;SDS011;62840;52.366;5.980;2023-10-19T03:01:20;11.13;;;6.15;;
69573;SDS011;62840;52.366;5.980;2023-10-19T03:03:47;11.13;;;5.97;;
69573;SDS011;62840;52.366;5.980;2023-10-19T03:06:20;9.65;;;5.43;;
69573;SDS011;62840;52.366;5.980;2023-10-19T03:08:47;11.68;;;6.43;;
69573;SDS011;62840;52.366;5.980;2023-10-19T03:11:13;10.88;;;6.43;;
69573;SDS011;62840;52.366;5.980;2023-10-19T03:13:39;11.18;;;6.10;;
69573;SDS011;62840;52.366;5.980;2023-10-19T03:16:04;10.10;;;6.15;;
69573;SDS011;62840;52.366;5.980;2023-10-19T03:18:30;10.50;;;6.05;;
69573;SDS011;62840;52.366;5.980;2023-10-19T03:20:56;11.38;;;6.38;;
69573;SDS011;62840;52.366;5.980;2023-10-19T03:23:24;11.85;;;6.80;;
69573;SDS011;62840;52.366;5.980;2023-10-19T03:25:54;10.77;;;6.63;;
69573;SDS011;62840;52.366;5.980;2023-10-19T03:28:20;12.10;;;6.80;;
69573;SDS011;62840;52.366;5.980;2023-10-19T03:30:46;9.70;;;6.37;;
69573;SDS011;62840;52.366;5.980;2023-10-19T03:33:12;11.77;;;7.03;;
69573;SDS011;62840;52.366;5.980;2023-10-19T03:35:38;11.17;;;6.60;;
69573;SDS011;62840;52.366;5.980;2023-10-19T03:38:04;10.60;;;6.25;;
69573;SDS011;62840;52.366;5.980;2023-10-19T03:40:32;13.38;;;7.38;;
69573;SDS011;62840;52.366;5.980;2023-10-19T03:42:58;11.80;;;6.50;;
69573;SDS011;62840;52.366;5.980;2023-10-19T03:45:24;12.07;;;6.75;;
69573;SDS011;62840;52.366;5.980;2023-10-19T03:47:50;12.63;;;7.03;;
69573;SDS011;62840;52.366;5.980;2023-10-19T03:50:16;11.25;;;6.55;;
69573;SDS011;62840;52.366;5.980;2023-10-19T03:52:42;13.48;;;7.32;;
69573;SDS011;62840;52.366;5.980;2023-10-19T03:55:08;12.23;;;6.60;;
69573;SDS011;62840;52.366;5.980;2023-10-19T03:57:36;12.02;;;6.78;;
69573;SDS011;62840;52.366;5.980;2023-10-19T04:00:03;13.40;;;7.20;;
69573;SDS011;62840;52.366;5.980;2023-10-19T04:02:30;11.32;;;7.00;;
69573;SDS011;62840;52.366;5.980;2023-10-19T04:04:55;11.03;;;6.43;;
69573;SDS011;62840;52.366;5.980;2023-10-19T04:07:21;11.48;;;6.97;;
69573;SDS011;62840;52.366;5.980;2023-10-19T04:09:47;10.93;;;6.43;;
69573;SDS011;62840;52.366;5.980;2023-10-19T04:12:13;10.52;;;6.43;;
69573;SDS011;62840;52.366;5.980;2023-10-19T04:14:42;11.05;;;7.10;;
69573;SDS011;62840;52.366;5.980;2023-10-19T04:17:08;9.97;;;6.10;;
69573;SDS011;62840;52.366;5.980;2023-10-19T04:19:33;11.77;;;6.20;;
69573;SDS011;62840;52.366;5.980;2023-10-19T04:21:59;12.70;;;7.15;;
69573;SDS011;62840;52.366;5.980;2023-10-19T04:24:25;13.47;;;6.80;;
69573;SDS011;62840;52.366;5.980;2023-10-19T04:26:50;11.88;;;7.38;;
69573;SDS011;62840;52.366;5.980;2023-10-19T04:29:16;12.07;;;6.63;;
69573;SDS011;62840;52.366;5.980;2023-10-19T04:31:44;11.65;;;7.20;;
69573;SDS011;62840;52.366;5.980;2023-10-19T04:34:10;12.60;;;6.33;;
69573;SDS011;62840;52.366;5.980;2023-10-19T04:36:36;12.63;;;6.93;;
69573;SDS011;62840;52.366;5.980;2023-10-19T04:39:02;11.63;;;6.90;;
69573;SDS011;62840;52.366;5.980;2023-10-19T04:41:28;11.48;;;6.53;;
69573;SDS011;62840;52.366;5.980;2023-10-19T04:43:54;12.30;;;6.88;;
69573;SDS011;62840;52.366;5.980;2023-10-19T04:46:20;11.17;;;6.83;;
69573;SDS011;62840;52.366;5.980;2023-10-19T04:48:48;12.48;;;7.40;;
69573;SDS011;62840;52.366;5.980;2023-10-19T04:51:14;11.63;;;6.85;;
69573;SDS011;62840;52.366;5.980;2023-10-19T04:53:39;12.77;;;6.93;;
69573;SDS011;62840;52.366;5.980;2023-10-19T04:56:05;10.82;;;6.60;;
69573;SDS011;62840;52.366;5.980;2023-10-19T04:58:34;12.52;;;7.10;;
69573;SDS011;62840;52.366;5.980;2023-10-19T05:01:00;11.95;;;7.00;;
69573;SDS011;62840;52.366;5.980;2023-10-19T05:03:26;12.38;;;6.88;;
69573;SDS011;62840;52.366;5.980;2023-10-19T05:05:54;13.23;;;7.47;;
69573;SDS011;62840;52.366;5.980;2023-10-19T05:08:20;10.70;;;6.85;;
69573;SDS011;62840;52.366;5.980;2023-10-19T05:10:46;12.60;;;6.60;;
69573;SDS011;62840;52.366;5.980;2023-10-19T05:13:12;11.47;;;6.53;;
69573;SDS011;62840;52.366;5.980;2023-10-19T05:15:37;12.45;;;6.72;;
69573;SDS011;62840;52.366;5.980;2023-10-19T05:18:04;10.63;;;6.43;;
69573;SDS011;62840;52.366;5.980;2023-10-19T05:20:30;11.60;;;6.40;;
69573;SDS011;62840;52.366;5.980;2023-10-19T05:22:58;10.25;;;6.53;;
69573;SDS011;62840;52.366;5.980;2023-10-19T05:25:24;12.05;;;6.53;;
69573;SDS011;62840;52.366;5.980;2023-10-19T05:27:50;11.97;;;6.33;;
69573;SDS011;62840;52.366;5.980;2023-10-19T05:30:16;12.65;;;6.60;;
69573;SDS011;62840;52.366;5.980;2023-10-19T05:32:42;10.37;;;6.10;;
69573;SDS011;62840;52.366;5.980;2023-10-19T05:35:07;12.25;;;6.57;;
69573;SDS011;62840;52.366;5.980;2023-10-19T05:37:33;11.05;;;6.60;;
69573;SDS011;62840;52.366;5.980;2023-10-19T05:40:02;11.20;;;6.40;;
69573;SDS011;62840;52.366;5.980;2023-10-19T05:42:29;11.77;;;6.25;;
69573;SDS011;62840;52.366;5.980;2023-10-19T05:44:55;10.73;;;6.15;;
69573;SDS011;62840;52.366;5.980;2023-10-19T05:47:21;10.07;;;6.17;;
69573;SDS011;62840;52.366;5.980;2023-10-19T05:49:46;11.48;;;6.22;;
69573;SDS011;62840;52.366;5.980;2023-10-19T05:52:12;9.53;;;6.00;;
69573;SDS011;62840;52.366;5.980;2023-10-19T05:54:38;10.95;;;6.10;;
69573;SDS011;62840;52.366;5.980;2023-10-19T05:57:06;10.33;;;5.83;;
69573;SDS011;62840;52.366;5.980;2023-10-19T05:59:32;8.75;;;5.57;;
69573;SDS011;62840;52.366;5.980;2023-10-19T06:01:58;9.45;;;5.45;;
69573;SDS011;62840;52.366;5.980;2023-10-19T06:04:24;10.70;;;6.13;;
69573;SDS011;62840;52.366;5.980;2023-10-19T06:06:49;10.10;;;5.97;;
69573;SDS011;62840;52.366;5.980;2023-10-19T06:09:15;10.67;;;6.07;;
69573;SDS011;62840;52.366;5.980;2023-10-19T06:11:41;8.85;;;5.30;;
69573;SDS011;62840;52.366;5.980;2023-10-19T06:14:09;10.50;;;5.30;;
69573;SDS011;62840;52.366;5.980;2023-10-19T06:16:35;9.02;;;5.10;;
69573;SDS011;62840;52.366;5.980;2023-10-19T06:19:01;10.32;;;5.60;;
69573;SDS011;62840;52.366;5.980;2023-10-19T06:21:28;10.30;;;5.65;;
69573;SDS011;62840;52.366;5.980;2023-10-19T06:23:54;9.53;;;5.60;;
69573;SDS011;62840;52.366;5.980;2023-10-19T06:26:19;10.07;;;5.70;;
69573;SDS011;62840;52.366;5.980;2023-10-19T06:28:45;9.10;;;5.37;;
69573;SDS011;62840;52.366;5.980;2023-10-19T06:31:13;9.90;;;5.50;;
69573;SDS011;62840;52.366;5.980;2023-10-19T06:33:39;8.82;;;5.40;;
69573;SDS011;62840;52.366;5.980;2023-10-19T06:36:05;9.50;;;4.93;;
69573;SDS011;62840;52.366;5.980;2023-10-19T06:38:31;9.95;;;5.13;;
69573;SDS011;62840;52.366;5.980;2023-10-19T06:40:57;9.27;;;4.65;;
69573;SDS011;62840;52.366;5.980;2023-10-19T06:43:24;9.52;;;5.18;;
69573;SDS011;62840;52.366;5.980;2023-10-19T06:45:50;9.57;;;5.57;;
69573;SDS011;62840;52.366;5.980;2023-10-19T06:48:18;8.03;;;5.17;;
69573;SDS011;62840;52.366;5.980;2023-10-19T06:50:44;8.82;;;5.07;;
69573;SDS011;62840;52.366;5.980;2023-10-19T06:53:09;11.43;;;5.03;;
69573;SDS011;62840;52.366;5.980;2023-10-19T06:55:35;9.03;;;5.33;;
69573;SDS011;62840;52.366;5.980;2023-10-19T06:58:01;9.18;;;5.05;;
69573;SDS011;62840;52.366;5.980;2023-10-19T07:00:27;8.93;;;4.70;;
69573;SDS011;62840;52.366;5.980;2023-10-19T07:02:53;8.90;;;5.45;;
69573;SDS011;62840;52.366;5.980;2023-10-19T07:05:24;11.02;;;5.05;;
69573;SDS011;62840;52.366;5.980;2023-10-19T07:07:50;9.95;;;4.82;;
69573;SDS011;62840;52.366;5.980;2023-10-19T07:10:17;9.77;;;4.80;;
69573;SDS011;62840;52.366;5.980;2023-10-19T07:12:45;8.77;;;5.03;;
69573;SDS011;62840;52.366;5.980;2023-10-19T07:15:13;8.70;;;5.00;;
69573;SDS011;62840;52.366;5.980;2023-10-19T07:17:39;9.13;;;4.75;;
69573;SDS011;62840;52.366;5.980;2023-10-19T07:20:06;10.50;;;4.35;;
69573;SDS011;62840;52.366;5.980;2023-10-19T07:22:36;8.48;;;4.55;;
69573;SDS011;62840;52.366;5.980;2023-10-19T07:25:02;8.82;;;4.90;;
69573;SDS011;62840;52.366;5.980;2023-10-19T07:27:28;7.60;;;4.43;;
69573;SDS011;62840;52.366;5.980;2023-10-19T07:29:54;8.10;;;4.33;;
69573;SDS011;62840;52.366;5.980;2023-10-19T07:32:20;8.45;;;4.25;;
69573;SDS011;62840;52.366;5.980;2023-10-19T07:34:45;7.40;;;3.87;;
69573;SDS011;62840;52.366;5.980;2023-10-19T07:37:11;7.95;;;4.45;;
69573;SDS011;62840;52.366;5.980;2023-10-19T07:39:40;7.82;;;4.20;;
69573;SDS011;62840;52.366;5.980;2023-10-19T07:42:09;9.43;;;4.23;;
69573;SDS011;62840;52.366;5.980;2023-10-19T07:44:35;8.38;;;4.13;;
69573;SDS011;62840;52.366;5.980;2023-10-19T07:47:00;7.93;;;4.17;;
69573;SDS011;62840;52.366;5.980;2023-10-19T07:49:26;7.65;;;4.05;;
69573;SDS011;62840;52.366;5.980;2023-10-19T07:51:52;7.97;;;4.07;;
69573;SDS011;62840;52.366;5.980;2023-10-19T07:54:18;8.65;;;4.05;;
69573;SDS011;62840;52.366;5.980;2023-10-19T07:56:46;8.30;;;3.87;;
69573;SDS011;62840;52.366;5.980;2023-10-19T07:59:12;8.05;;;4.15;;
69573;SDS011;62840;52.366;5.980;2023-10-19T08:01:38;12.10;;;6.78;;
69573;SDS011;62840;52.366;5.980;2023-10-19T08:04:04;9.60;;;5.40;;
69573;SDS011;62840;52.366;5.980;2023-10-19T08:06:30;7.15;;;3.83;;
69573;SDS011;62840;52.366;5.980;2023-10-19T08:08:56;9.70;;;4.28;;
69573;SDS011;62840;52.366;5.980;2023-10-19T08:11:22;7.32;;;4.15;;
69573;SDS011;62840;52.366;5.980;2023-10-19T08:13:50;8.93;;;3.83;;
69573;SDS011;62840;52.366;5.980;2023-10-19T08:16:16;8.35;;;3.92;;
69573;SDS011;62840;52.366;5.980;2023-10-19T08:18:42;7.82;;;4.00;;
69573;SDS011;62840;52.366;5.980;2023-10-19T08:21:08;7.40;;;3.70;;
69573;SDS011;62840;52.366;5.980;2023-10-19T08:23:34;12.27;;;3.63;;
69573;SDS011;62840;52.366;5.980;2023-10-19T08:26:00;9.93;;;4.10;;
69573;SDS011;62840;52.366;5.980;2023-10-19T08:28:29;8.88;;;4.07;;
69573;SDS011;62840;52.366;5.980;2023-10-19T08:30:57;8.90;;;3.65;;
69573;SDS011;62840;52.366;5.980;2023-10-19T08:33:23;7.28;;;3.20;;
69573;SDS011;62840;52.366;5.980;2023-10-19T08:35:49;6.33;;;3.13;;
69573;SDS011;62840;52.366;5.980;2023-10-19T08:38:15;8.15;;;3.35;;
69573;SDS011;62840;52.366;5.980;2023-10-19T08:40:40;6.20;;;3.00;;
69573;SDS011;62840;52.366;5.980;2023-10-19T08:43:06;6.90;;;3.20;;
69573;SDS011;62840;52.366;5.980;2023-10-19T08:45:33;7.25;;;3.30;;
69573;SDS011;62840;52.366;5.980;2023-10-19T08:48:02;6.78;;;3.58;;
69573;SDS011;62840;52.366;5.980;2023-10-19T08:50:30;5.83;;;2.90;;
69573;SDS011;62840;52.366;5.980;2023-10-19T08:52:58;6.63;;;3.20;;
69573;SDS011;62840;52.366;5.980;2023-10-19T08:55:26;7.28;;;3.65;;
69573;SDS011;62840;52.366;5.980;2023-10-19T08:57:53;8.05;;;3.13;;
69573;SDS011;62840;52.366;5.980;2023-10-19T09:00:19;6.80;;;3.40;;
69573;SDS011;62840;52.366;5.980;2023-10-19T09:02:45;6.67;;;3.03;;
69573;SDS011;62840;52.366;5.980;2023-10-19T09:05:14;7.60;;;3.10;;
69573;SDS011;62840;52.366;5.980;2023-10-19T09:07:40;6.45;;;3.10;;
69573;SDS011;62840;52.366;5.980;2023-10-19T09:10:06;7.60;;;3.47;;
69573;SDS011;62840;52.366;5.980;2023-10-19T09:12:33;8.00;;;3.30;;
69573;SDS011;62840;52.366;5.980;2023-10-19T09:14:59;6.28;;;3.25;;
69573;SDS011;62840;52.366;5.980;2023-10-19T09:17:27;5.60;;;2.80;;
69573;SDS011;62840;52.366;5.980;2023-10-19T09:19:53;7.78;;;2.97;;
69573;SDS011;62840;52.366;5.980;2023-10-19T09:22:22;8.15;;;2.97;;
69573;SDS011;62840;52.366;5.980;2023-10-19T09:24:48;5.32;;;3.30;;
69573;SDS011;62840;52.366;5.980;2023-10-19T09:27:16;7.67;;;3.30;;
69573;SDS011;62840;52.366;5.980;2023-10-19T09:29:42;10.20;;;3.22;;
69573;SDS011;62840;52.366;5.980;2023-10-19T09:32:08;8.45;;;3.50;;
69573;SDS011;62840;52.366;5.980;2023-10-19T09:34:35;11.25;;;3.30;;
69573;SDS011;62840;52.366;5.980;2023-10-19T09:37:02;7.20;;;3.60;;
69573;SDS011;62840;52.366;5.980;2023-10-19T09:39:31;6.70;;;2.90;;
69573;SDS011;62840;52.366;5.980;2023-10-19T09:41:58;6.60;;;3.17;;
69573;SDS011;62840;52.366;5.980;2023-10-19T09:44:24;5.07;;;2.83;;
69573;SDS011;62840;52.366;5.980;2023-10-19T09:46:54;7.47;;;3.13;;
69573;SDS011;62840;52.366;5.980;2023-10-19T09:49:27;6.20;;;2.77;;
69573;SDS011;62840;52.366;5.980;2023-10-19T09:51:53;5.70;;;2.75;;
69573;SDS011;62840;52.366;5.980;2023-10-19T09:54:20;6.35;;;2.60;;
69573;SDS011;62840;52.366;5.980;2023-10-19T09:57:01;6.35;;;2.60;;
69573;SDS011;62840;52.366;5.980;2023-10-19T09:59:38;6.90;;;2.37;;
69573;SDS011;62840;52.366;5.980;2023-10-19T10:02:11;5.97;;;2.33;;
69573;SDS011;62840;52.366;5.980;2023-10-19T10:04:39;5.70;;;2.97;;
69573;SDS011;62840;52.366;5.980;2023-10-19T10:07:07;7.68;;;2.70;;
69573;SDS011;62840;52.366;5.980;2023-10-19T10:09:35;7.40;;;3.00;;
69573;SDS011;62840;52.366;5.980;2023-10-19T10:12:18;5.30;;;2.60;;
69573;SDS011;62840;52.366;5.980;2023-10-19T10:14:55;7.28;;;2.65;;
69573;SDS011;62840;52.366;5.980;2023-10-19T10:17:23;7.03;;;3.13;;
69573;SDS011;62840;52.366;5.980;2023-10-19T10:19:50;5.97;;;2.67;;
69573;SDS011;62840;52.366;5.980;2023-10-19T10:22:19;6.55;;;2.42;;
69573;SDS011;62840;52.366;5.980;2023-10-19T10:24:46;6.33;;;2.70;;
69573;SDS011;62840;52.366;5.980;2023-10-19T10:27:21;5.80;;;2.70;;
69573;SDS011;62840;52.366;5.980;2023-10-19T10:29:53;9.98;;;3.25;;
69573;SDS011;62840;52.366;5.980;2023-10-19T10:38:20;6.47;;;2.57;;
69573;SDS011;62840;52.366;5.980;2023-10-19T10:40:46;7.32;;;2.70;;
69573;SDS011;62840;52.366;5.980;2023-10-19T10:43:18;8.35;;;2.58;;
69573;SDS011;62840;52.366;5.980;2023-10-19T10:45:44;9.02;;;2.80;;
69573;SDS011;62840;52.366;5.980;2023-10-19T10:48:11;6.73;;;2.60;;
69573;SDS011;62840;52.366;5.980;2023-10-19T10:50:38;6.65;;;2.60;;
69573;SDS011;62840;52.366;5.980;2023-10-19T10:53:04;6.82;;;3.05;;
69573;SDS011;62840;52.366;5.980;2023-10-19T10:55:30;7.53;;;2.47;;
69573;SDS011;62840;52.366;5.980;2023-10-19T10:57:56;11.00;;;2.85;;
69573;SDS011;62840;52.366;5.980;2023-10-19T11:00:24;6.55;;;2.40;;
69573;SDS011;62840;52.366;5.980;2023-10-19T11:02:58;7.93;;;2.70;;
69573;SDS011;62840;52.366;5.980;2023-10-19T11:05:26;6.25;;;2.60;;
69573;SDS011;62840;52.366;5.980;2023-10-19T11:08:08;4.47;;;2.40;;
69573;SDS011;62840;52.366;5.980;2023-10-19T11:10:35;6.03;;;2.53;;
69573;SDS011;62840;52.366;5.980;2023-10-19T11:13:01;5.77;;;2.43;;
69573;SDS011;62840;52.366;5.980;2023-10-19T11:15:31;7.22;;;2.58;;
69573;SDS011;62840;52.366;5.980;2023-10-19T11:17:57;5.55;;;2.60;;
69573;SDS011;62840;52.366;5.980;2023-10-19T11:20:23;9.15;;;2.13;;
69573;SDS011;62840;52.366;5.980;2023-10-19T11:22:51;5.18;;;2.45;;
69573;SDS011;62840;52.366;5.980;2023-10-19T11:25:19;5.82;;;2.20;;
69573;SDS011;62840;52.366;5.980;2023-10-19T11:27:46;6.25;;;2.42;;
69573;SDS011;62840;52.366;5.980;2023-10-19T11:30:12;9.85;;;2.78;;
69573;SDS011;62840;52.366;5.980;2023-10-19T11:32:49;5.43;;;2.33;;
69573;SDS011;62840;52.366;5.980;2023-10-19T11:35:15;6.97;;;2.25;;
69573;SDS011;62840;52.366;5.980;2023-10-19T11:37:45;7.65;;;2.42;;
69573;SDS011;62840;52.366;5.980;2023-10-19T11:40:12;7.50;;;2.33;;
69573;SDS011;62840;52.366;5.980;2023-10-19T11:42:38;7.43;;;2.30;;
69573;SDS011;62840;52.366;5.980;2023-10-19T11:45:04;6.80;;;2.60;;
69573;SDS011;62840;52.366;5.980;2023-10-19T11:47:31;7.15;;;2.65;;
69573;SDS011;62840;52.366;5.980;2023-10-19T11:49:59;6.68;;;2.45;;
69573;SDS011;62840;52.366;5.980;2023-10-19T11:52:25;5.82;;;2.17;;
69573;SDS011;62840;52.366;5.980;2023-10-19T11:54:51;5.23;;;2.00;;
69573;SDS011;62840;52.366;5.980;2023-10-19T11:57:16;7.38;;;2.13;;
69573;SDS011;62840;52.366;5.980;2023-10-19T11:59:42;6.07;;;2.10;;
69573;SDS011;62840;52.366;5.980;2023-10-19T12:02:08;6.05;;;2.25;;
69573;SDS011;62840;52.366;5.980;2023-10-19T12:04:34;6.25;;;2.20;;
69573;SDS011;62840;52.366;5.980;2023-10-19T12:07:02;6.38;;;2.13;;
69573;SDS011;62840;52.366;5.980;2023-10-19T12:09:28;5.15;;;2.00;;
69573;SDS011;62840;52.366;5.980;2023-10-19T12:11:54;7.10;;;2.40;;
69573;SDS011;62840;52.366;5.980;2023-10-19T12:14:20;5.47;;;2.20;;
69573;SDS011;62840;52.366;5.980;2023-10-19T12:16:46;5.18;;;2.30;;
69573;SDS011;62840;52.366;5.980;2023-10-19T12:19:12;6.37;;;2.13;;
69573;SDS011;62840;52.366;5.980;2023-10-19T12:21:38;5.45;;;2.05;;
69573;SDS011;62840;52.366;5.980;2023-10-19T12:24:07;6.50;;;2.30;;
69573;SDS011;62840;52.366;5.980;2023-10-19T12:26:33;6.70;;;2.25;;
69573;SDS011;62840;52.366;5.980;2023-10-19T12:28:59;5.57;;;2.33;;
69573;SDS011;62840;52.366;5.980;2023-10-19T12:31:25;7.43;;;2.50;;
69573;SDS011;62840;52.366;5.980;2023-10-19T12:33:50;6.87;;;2.30;;
69573;SDS011;62840;52.366;5.980;2023-10-19T12:36:16;7.40;;;2.63;;
69573;SDS011;62840;52.366;5.980;2023-10-19T12:38:42;7.17;;;2.60;;
69573;SDS011;62840;52.366;5.980;2023-10-19T12:41:10;6.07;;;2.33;;
69573;SDS011;62840;52.366;5.980;2023-10-19T12:43:36;5.72;;;2.70;;
69573;SDS011;62840;52.366;5.980;2023-10-19T12:46:02;9.43;;;2.30;;
69573;SDS011;62840;52.366;5.980;2023-10-19T12:48:28;8.23;;;2.80;;
69573;SDS011;62840;52.366;5.980;2023-10-19T12:50:53;9.43;;;2.47;;
69573;SDS011;62840;52.366;5.980;2023-10-19T12:53:19;7.90;;;3.20;;
69573;SDS011;62840;52.366;5.980;2023-10-19T12:55:45;7.23;;;2.27;;
69573;SDS011;62840;52.366;5.980;2023-10-19T12:58:13;6.55;;;2.35;;
69573;SDS011;62840;52.366;5.980;2023-10-19T13:00:39;5.75;;;2.10;;
69573;SDS011;62840;52.366;5.980;2023-10-19T13:03:05;7.22;;;2.20;;
69573;SDS011;62840;52.366;5.980;2023-10-19T13:05:35;6.05;;;1.92;;
69573;SDS011;62840;52.366;5.980;2023-10-19T13:08:02;5.47;;;2.75;;
69573;SDS011;62840;52.366;5.980;2023-10-19T13:10:29;5.70;;;2.30;;
69573;SDS011;62840;52.366;5.980;2023-10-19T13:12:57;5.65;;;2.40;;
69573;SDS011;62840;52.366;5.980;2023-10-19T13:15:27;6.97;;;2.10;;
69573;SDS011;62840;52.366;5.980;2023-10-19T13:17:53;7.22;;;2.35;;
69573;SDS011;62840;52.366;5.980;2023-10-19T13:20:19;5.80;;;1.93;;
69573;SDS011;62840;52.366;5.980;2023-10-19T13:22:44;7.25;;;1.80;;
69573;SDS011;62840;52.366;5.980;2023-10-19T13:25:10;6.57;;;2.33;;
69573;SDS011;62840;52.366;5.980;2023-10-19T13:27:36;6.38;;;1.55;;
69573;SDS011;62840;52.366;5.980;2023-10-19T13:30:02;5.95;;;1.80;;
69573;SDS011;62840;52.366;5.980;2023-10-19T13:32:31;5.72;;;1.90;;
69573;SDS011;62840;52.366;5.980;2023-10-19T13:34:57;7.13;;;1.92;;
69573;SDS011;62840;52.366;5.980;2023-10-19T13:37:23;4.13;;;1.67;;
69573;SDS011;62840;52.366;5.980;2023-10-19T13:39:49;7.00;;;1.80;;
69573;SDS011;62840;52.366;5.980;2023-10-19T13:42:14;4.05;;;1.70;;
69573;SDS011;62840;52.366;5.980;2023-10-19T13:44:40;9.40;;;2.08;;
69573;SDS011;62840;52.366;5.980;2023-10-19T13:47:06;5.32;;;1.90;;
69573;SDS011;62840;52.366;5.980;2023-10-19T13:49:34;6.03;;;1.90;;
69573;SDS011;62840;52.366;5.980;2023-10-19T13:52:00;5.65;;;2.20;;
69573;SDS011;62840;52.366;5.980;2023-10-19T13:54:26;7.45;;;1.73;;
69573;SDS011;62840;52.366;5.980;2023-10-19T13:56:51;7.00;;;2.10;;
69573;SDS011;62840;52.366;5.980;2023-10-19T13:59:17;6.88;;;2.08;;
69573;SDS011;62840;52.366;5.980;2023-10-19T14:01:43;5.37;;;2.10;;
69573;SDS011;62840;52.366;5.980;2023-10-19T14:04:09;6.78;;;2.15;;
69573;SDS011;62840;52.366;5.980;2023-10-19T14:06:37;8.70;;;2.10;;
69573;SDS011;62840;52.366;5.980;2023-10-19T14:09:03;4.70;;;1.80;;
69573;SDS011;62840;52.366;5.980;2023-10-19T14:11:29;5.63;;;1.77;;
69573;SDS011;62840;52.366;5.980;2023-10-19T14:13:54;5.43;;;2.10;;
69573;SDS011;62840;52.366;5.980;2023-10-19T14:16:20;4.78;;;1.98;;
69573;SDS011;62840;52.366;5.980;2023-10-19T14:18:46;5.60;;;1.80;;
69573;SDS011;62840;52.366;5.980;2023-10-19T14:21:13;7.25;;;2.17;;
69573;SDS011;62840;52.366;5.980;2023-10-19T14:23:43;5.72;;;1.95;;
69573;SDS011;62840;52.366;5.980;2023-10-19T14:26:09;6.40;;;2.35;;
69573;SDS011;62840;52.366;5.980;2023-10-19T14:28:35;6.70;;;1.80;;
69573;SDS011;62840;52.366;5.980;2023-10-19T14:31:01;4.22;;;1.80;;
69573;SDS011;62840;52.366;5.980;2023-10-19T14:33:27;7.63;;;2.10;;
69573;SDS011;62840;52.366;5.980;2023-10-19T14:35:53;6.07;;;1.80;;
69573;SDS011;62840;52.366;5.980;2023-10-19T14:38:19;6.63;;;1.60;;
69573;SDS011;62840;52.366;5.980;2023-10-19T14:40:47;4.60;;;1.70;;
69573;SDS011;62840;52.366;5.980;2023-10-19T14:43:13;5.80;;;1.92;;
69573;SDS011;62840;52.366;5.980;2023-10-19T14:45:40;8.18;;;2.10;;